Weersoverzicht van METAR-stations binnen 150 km

EHRD - Rotterdam Airport
Afstand tot weerstation: ZO 28 km
Update: 17-08-2018 03:55
Gedeeltelijk bewolkt
Gedeeltelijk bewolkt
 Wind van ZZW
Wind: ZZW 2 km/h
Temperatuur: 16°C
Dauwpunt: 16°C
Luchtvochtigheid: 100%
Luchtdruk: 1015 hPa
Bewolking: Gedeeltelijk bewolkt
Zicht: 10 km
2018/08/17 01:55 EHRD 170155Z AUTO 21001KT 9999 NSC 16/16 Q1015 NOSIG
EHSC - Goeree Le Sea (Platform ter hoogte van Zeeland)
Afstand tot weerstation: WZW 36 km
Update: 17-08-2018 03:55

 Wind van NW
Wind: NW 26 km/h
Temperatuur: 19°C
Dauwpunt: 13°C
Luchtvochtigheid: 68%
Luchtdruk: 1015 hPa
Zicht: 10 km
2018/08/17 01:55 EHSC 170155Z AUTO 31014KT 9999 ///////// 19/13 Q1015 W21/H7
 
EHAM - A'dam Schiphol
Afstand tot weerstation: ONO 51 km
Update: 17-08-2018 03:55
Helder
Helder
 Wind van W
Wind: W 2 km/h
Temperatuur: 16°C
Dauwpunt: 14°C
Luchtvochtigheid: 88%
Luchtdruk: 1015 hPa
Overzicht: Helder
Zicht: Meer dan 10 km
2018/08/17 01:55 EHAM 170155Z 26001KT CAVOK 16/14 Q1015 NOSIG
EHSA - Euro Platform (Ter hoogte van Zeeland)
Afstand tot weerstation: W 58 km
Update: 17-08-2018 03:55

 Wind van W
Wind: W 22 km/h
Temperatuur: 18°C
Dauwpunt: 14°C
Luchtvochtigheid: 78%
Luchtdruk: 1015 hPa
2018/08/17 01:55 EHSA 170155Z AUTO 27012KT //// // ///////// 18/14 Q1015 RE// W19/H7
 
EHPG - P11-B Sea (Platform ter hoogte van Zuid Holland)
Afstand tot weerstation: NW 60 km
Update: 17-08-2018 03:55
Gedeeltelijk bewolkt
Gedeeltelijk bewolkt
 Wind van Variabel
Wind: Variabel 17 km/h
Temperatuur: 18°C
Dauwpunt: 15°C
Luchtvochtigheid: 83%
Luchtdruk: 1015 hPa
Bewolking: Gedeeltelijk bewolkt
Zicht: 10 km
Details Bewolking: Gedeeltelijk bewolkt 457 m
Gedeeltelijk bewolkt 610 m
2018/08/17 01:55 EHPG 170155Z AUTO VRB09KT 9999 SCT015 SCT020 18/15 Q1015 W///H///
EHWO - Vliegveld Woensdrecht
Afstand tot weerstation: ZZO 65 km
Update: 17-08-2018 03:55
Light thunderstorm, Neerslag, Zwaar bewolkt
Light thunderstorm, Neerslag, Zwaar bewolkt
 Wind van Variabel
Wind: Variabel 4 km/h
Temperatuur: 16°C
Dauwpunt: 15°C
Luchtvochtigheid: 94%
Luchtdruk: 1016 hPa
Overzicht: Light thunderstorm, Neerslag
Bewolking: Zwaar bewolkt
Zicht: 10 km
Details Bewolking: Gedeeltelijk bewolkt 457 m
Overwegend bewolkt 2682 m
Zwaar bewolkt 2865 m
2018/08/17 01:55 EHWO 170155Z AUTO VRB02KT 9999 -TSRA SCT015CB BKN088 OVC094 16/15 Q1016 WHT
 
EHGR - Vliegveld Gilze-Rijen
Afstand tot weerstation: ZO 79 km
Update: 17-08-2018 03:55
Lichte regen, Buien, Zwaar bewolkt
Lichte regen, Buien, Zwaar bewolkt
 Wind van WZW
Wind: WZW 6 km/h
Temperatuur: 16°C
Dauwpunt: 15°C
Luchtvochtigheid: 94%
Luchtdruk: 1016 hPa
Overzicht: Lichte regen, Buien
Bewolking: Zwaar bewolkt
Zicht: 10 km
Details Bewolking: Overwegend bewolkt 457 m
Overwegend bewolkt 792 m
Zwaar bewolkt 914 m
2018/08/17 01:55 EHGR 170155Z AUTO 24003KT 210V270 9999 -SHRA BKN015CB BKN026 OVC030 16/15 Q1016 RERA WHT
EHQE - Hoorn-A Sea (Platform ter hoogte van Noord Holland)
Afstand tot weerstation: N 103 km
Update: 17-08-2018 03:55
Gedeeltelijk bewolkt
Gedeeltelijk bewolkt
 Wind van W
Wind: W 28 km/h
Temperatuur: 18°C
Dauwpunt: 14°C
Luchtvochtigheid: 78%
Luchtdruk: 1015 hPa
Bewolking: Gedeeltelijk bewolkt
Zicht: 10 km
2018/08/17 01:55 EHQE 170155Z AUTO 28015KT 9999 NSC 18/14 Q1015 W///H///
 
EHKD - Marinebasis De Kooy (Den Helder)
Afstand tot weerstation: NNO 114 km
Update: 17-08-2018 03:55
Zwaar bewolkt
Zwaar bewolkt
 Wind van WNW
Wind: WNW 7 km/h
Temperatuur: 16°C
Dauwpunt: 13°C
Luchtvochtigheid: 83%
Luchtdruk: 1015 hPa
Bewolking: Zwaar bewolkt
Zicht: 10 km
Details Bewolking: Zwaar bewolkt 5486 m
2018/08/17 01:55 EHKD 170155Z AUTO 30004KT 9999 OVC180 16/13 Q1015 BLU
EHEH - Vliegveld Eindhoven
Afstand tot weerstation: OZO 115 km
Update: 17-08-2018 03:55
Thunderstorm rain, Overwegend bewolkt
Thunderstorm rain, Overwegend bewolkt
 Wind van NNW
Wind: NNW 6 km/h
Temperatuur: 16°C
Dauwpunt: 16°C
Luchtvochtigheid: 100%
Luchtdruk: 1016 hPa
Overzicht: Thunderstorm Rain
Bewolking: Overwegend bewolkt
Zicht: 6 km
Details Bewolking: Enkele wolken 122 m
Overwegend bewolkt 457 m
Overwegend bewolkt 2225 m
2018/08/17 01:55 EHEH 170155Z AUTO 34003KT 6000 TSRA FEW004 BKN015CB BKN073 16/16 Q1016 WHT
 
EHVK - Vliegveld Volkel
Afstand tot weerstation: OZO 124 km
Update: 17-08-2018 03:55
Lichte regen, Zwaar bewolkt
Lichte regen, Zwaar bewolkt
 Wind van NO
Wind: NO 6 km/h
Temperatuur: 16°C
Dauwpunt: 15°C
Luchtvochtigheid: 94%
Luchtdruk: 1015 hPa
Overzicht: Lichte regen
Bewolking: Zwaar bewolkt
Zicht: 6 km
Details Bewolking: Enkele wolken 152 m
Overwegend bewolkt 457 m
Overwegend bewolkt 1890 m
Zwaar bewolkt 2377 m
2018/08/17 01:55 EHVK 170155Z AUTO 04003KT 360V090 6000 -RA FEW005 BKN015CB BKN062 OVC078 16/15 Q1015 WHT
EHDL - Vliegveld Deelen
Afstand tot weerstation: O 128 km
Update: 17-08-2018 03:55
Neerslag, Overwegend bewolkt
Neerslag, Overwegend bewolkt
 Wind van Variabel
Wind: Variabel 2 km/h
Temperatuur: 15°C
Dauwpunt: 15°C
Luchtvochtigheid: 100%
Luchtdruk: 1016 hPa
Overzicht: Neerslag
Bewolking: Overwegend bewolkt
Zicht: 6 km
Details Bewolking: Overwegend bewolkt 457 m
Gedeeltelijk bewolkt 2225 m
Overwegend bewolkt 2408 m
2018/08/17 01:55 EHDL 170155Z AUTO VRB01KT 6000 RA BKN015CB SCT073 BKN079 15/15 Q1016 RETS WHT